createdAt,value
2017-08-19T00:00:26.020Z,88.89
2017-08-19T00:01:26.666Z,89.37
2017-08-19T00:02:27.300Z,89.47
2017-08-19T00:03:28.085Z,89.47
2017-08-19T00:04:28.724Z,89.47
2017-08-19T00:05:29.363Z,89.37
2017-08-19T00:06:29.999Z,89.47
2017-08-19T00:07:30.632Z,89.28
2017-08-19T00:08:31.270Z,89.57
2017-08-19T00:09:31.909Z,89.76
2017-08-19T00:10:32.540Z,89.67
2017-08-19T00:11:33.531Z,89.67
2017-08-19T00:12:34.162Z,89.37
2017-08-19T00:13:34.799Z,89.47
2017-08-19T00:14:35.434Z,89.86
2017-08-19T00:15:36.067Z,89.47
2017-08-19T00:16:36.708Z,89.37
2017-08-19T00:17:37.353Z,89.37
2017-08-19T00:18:37.980Z,89.95
2017-08-19T00:19:38.815Z,89.76
2017-08-19T00:20:39.450Z,89.57
2017-08-19T00:21:40.092Z,89.76
2017-08-19T00:22:40.725Z,89.76
2017-08-19T00:23:41.364Z,89.28
2017-08-19T00:24:42.010Z,89.09
2017-08-19T00:25:42.643Z,89.28
2017-08-19T00:26:43.280Z,89.37
2017-08-19T00:27:44.072Z,89.67
2017-08-19T00:28:44.714Z,89.37
2017-08-19T00:29:45.341Z,89.28
2017-08-19T00:30:45.982Z,89.57
2017-08-19T00:31:46.616Z,89.47
2017-08-19T00:32:47.251Z,89.76
2017-08-19T00:33:47.888Z,89.37
2017-08-19T00:34:48.522Z,89.37
2017-08-19T00:35:49.160Z,89.37
2017-08-19T00:36:49.994Z,89.28
2017-08-19T00:37:50.629Z,89.37
2017-08-19T00:38:51.268Z,89.47
2017-08-19T00:39:51.907Z,89.57
2017-08-19T00:40:52.538Z,89.47
2017-08-19T00:41:53.179Z,89.76
2017-08-19T00:42:53.814Z,89.28
2017-08-19T00:43:54.450Z,89.76
2017-08-19T00:44:55.284Z,89.76
2017-08-19T00:45:55.926Z,89.76
2017-08-19T00:46:56.558Z,89.57
2017-08-19T00:47:57.195Z,90.53
2017-08-19T00:48:57.837Z,89.57
2017-08-19T00:49:58.482Z,90.15
2017-08-19T00:50:59.115Z,89.95
2017-08-19T00:51:59.746Z,90.53
2017-08-19T00:53:00.586Z,89.95
2017-08-19T00:54:01.230Z,90.05
2017-08-19T00:55:01.857Z,89.67
2017-08-19T00:56:02.499Z,90.15
2017-08-19T00:57:03.138Z,90.44
2017-08-19T00:58:03.769Z,90.05
2017-08-19T00:59:04.404Z,89.76
2017-08-19T01:00:05.043Z,90.00
2017-08-19T01:01:05.826Z,90.05
2017-08-19T01:02:06.463Z,89.95
2017-08-19T01:03:07.101Z,90.05
2017-08-19T01:04:07.743Z,90.15
2017-08-19T01:05:08.372Z,89.67
2017-08-19T01:06:09.005Z,90.24
2017-08-19T01:07:09.640Z,90.05
2017-08-19T01:08:10.283Z,89.57
2017-08-19T01:09:10.923Z,90.05
2017-08-19T01:10:11.751Z,90.24
2017-08-19T01:11:12.392Z,90.30
2017-08-19T01:12:13.024Z,89.76
2017-08-19T01:13:13.659Z,89.57
2017-08-19T01:14:14.292Z,90.20
2017-08-19T01:15:14.938Z,90.48
2017-08-19T01:16:15.571Z,90.15
2017-08-19T01:17:16.203Z,90.68
2017-08-19T01:18:17.044Z,89.53
2017-08-19T01:19:17.684Z,90.00
2017-08-19T01:20:18.316Z,90.30
2017-08-19T01:21:18.951Z,90.48
2017-08-19T01:22:19.585Z,90.48
2017-08-19T01:23:20.222Z,90.39
2017-08-19T01:24:20.862Z,90.20
2017-08-19T01:25:21.493Z,90.58
2017-08-19T01:26:22.327Z,89.43
2017-08-19T01:27:22.961Z,89.91
2017-08-19T01:28:23.595Z,89.62
2017-08-19T01:29:24.233Z,89.81
2017-08-19T01:30:24.867Z,90.00
2017-08-19T01:31:25.503Z,89.72
2017-08-19T01:32:26.138Z,89.62
2017-08-19T01:33:26.779Z,89.53
2017-08-19T01:34:27.609Z,89.91
2017-08-19T01:35:28.294Z,89.81
2017-08-19T01:36:28.946Z,90.30
2017-08-19T01:37:29.570Z,90.00
2017-08-19T01:38:30.207Z,90.10
2017-08-19T01:39:30.843Z,89.91
2017-08-19T01:40:31.482Z,90.10
2017-08-19T01:41:32.113Z,90.30
2017-08-19T01:42:32.903Z,90.30
2017-08-19T01:43:33.533Z,90.10
2017-08-19T01:44:34.175Z,90.68
2017-08-19T01:45:34.817Z,90.00
2017-08-19T01:46:35.458Z,90.78
2017-08-19T01:47:36.089Z,90.20
2017-08-19T01:48:36.722Z,90.20
2017-08-19T01:49:37.360Z,90.00
2017-08-19T01:50:38.001Z,90.20
2017-08-19T01:51:38.882Z,90.88
2017-08-19T01:52:39.524Z,90.48
2017-08-19T01:53:40.155Z,90.20
2017-08-19T01:54:40.797Z,90.39
2017-08-19T01:55:41.430Z,90.20
2017-08-19T01:56:42.065Z,90.68
2017-08-19T01:57:42.699Z,90.68
2017-08-19T01:58:43.336Z,90.68
2017-08-19T01:59:44.272Z,90.68
2017-08-19T02:00:44.901Z,90.58
2017-08-19T02:01:45.539Z,90.97
2017-08-19T02:02:46.172Z,90.48
2017-08-19T02:03:46.812Z,91.06
2017-08-19T02:04:47.449Z,91.64
2017-08-19T02:05:48.088Z,90.97
2017-08-19T02:06:48.723Z,90.97
2017-08-19T02:07:49.510Z,90.78
2017-08-19T02:08:50.143Z,90.88
2017-08-19T02:09:50.778Z,90.68
2017-08-19T02:10:51.411Z,90.97
2017-08-19T02:11:52.048Z,90.58
2017-08-19T02:12:52.681Z,90.64
2017-08-19T02:13:53.314Z,90.73
2017-08-19T02:14:53.951Z,90.92
2017-08-19T02:15:54.885Z,91.31
2017-08-19T02:16:55.521Z,91.41
2017-08-19T02:17:56.154Z,91.12
2017-08-19T02:18:56.792Z,91.60
2017-08-19T02:19:57.426Z,91.12
2017-08-19T02:20:58.060Z,91.69
2017-08-19T02:21:58.701Z,91.64
2017-08-19T02:22:59.341Z,91.74
2017-08-19T02:23:59.977Z,91.74
2017-08-19T02:25:00.911Z,91.74
2017-08-19T02:26:01.548Z,91.06
2017-08-19T02:27:02.182Z,90.88
2017-08-19T02:28:02.817Z,90.78
2017-08-19T02:29:03.456Z,90.97
2017-08-19T02:30:04.100Z,90.78
2017-08-19T02:31:04.728Z,90.78
2017-08-19T02:32:05.367Z,91.16
2017-08-19T02:33:06.358Z,90.78
2017-08-19T02:34:06.986Z,90.58
2017-08-19T02:35:07.641Z,90.88
2017-08-19T02:36:08.262Z,90.68
2017-08-19T02:37:08.896Z,90.68
2017-08-19T02:38:09.536Z,90.78
2017-08-19T02:39:10.175Z,90.97
2017-08-19T02:40:10.813Z,90.58
2017-08-19T02:41:11.649Z,90.88
2017-08-19T02:42:12.290Z,91.06
2017-08-19T02:43:12.929Z,91.26
2017-08-19T02:44:13.563Z,90.68
2017-08-19T02:45:14.194Z,90.39
2017-08-19T02:46:14.828Z,90.48
2017-08-19T02:47:15.469Z,90.88
2017-08-19T02:48:16.098Z,90.00
2017-08-19T02:49:16.945Z,90.78
2017-08-19T02:50:17.581Z,90.00
2017-08-19T02:51:18.218Z,90.39
2017-08-19T02:52:18.854Z,90.88
2017-08-19T02:53:19.483Z,90.78
2017-08-19T02:54:20.127Z,90.97
2017-08-19T02:55:20.756Z,90.97
2017-08-19T02:56:21.391Z,90.88
2017-08-19T02:57:22.183Z,90.78
2017-08-19T02:58:22.817Z,90.88
2017-08-19T02:59:23.451Z,90.39
2017-08-19T03:00:24.093Z,90.39
2017-08-19T03:01:24.724Z,90.20
2017-08-19T03:02:25.364Z,90.39
2017-08-19T03:03:26.002Z,90.39
2017-08-19T03:04:26.637Z,90.30
2017-08-19T03:05:27.269Z,90.10
2017-08-19T03:06:28.160Z,90.20
2017-08-19T03:07:28.788Z,90.10
2017-08-19T03:08:29.428Z,89.81
2017-08-19T03:09:30.070Z,90.48
2017-08-19T03:10:30.699Z,90.30
2017-08-19T03:11:31.344Z,90.48
2017-08-19T03:12:31.985Z,90.39
2017-08-19T03:13:32.613Z,90.97
2017-08-19T03:14:33.446Z,90.39
2017-08-19T03:15:34.087Z,90.58
2017-08-19T03:16:34.719Z,90.78
2017-08-19T03:17:35.353Z,90.73
2017-08-19T03:18:35.991Z,90.20
2017-08-19T03:19:36.579Z,90.34
2017-08-19T03:20:37.210Z,90.44
2017-08-19T03:21:37.847Z,90.83
2017-08-19T03:22:38.682Z,91.02
2017-08-19T03:23:39.323Z,90.44
2017-08-19T03:24:39.965Z,90.92
2017-08-19T03:25:40.595Z,90.73
2017-08-19T03:26:41.231Z,90.64
2017-08-19T03:27:41.865Z,90.73
2017-08-19T03:28:42.501Z,91.60
2017-08-19T03:29:43.137Z,90.83
2017-08-19T03:30:43.967Z,90.83
2017-08-19T03:31:44.601Z,90.30
2017-08-19T03:32:45.233Z,90.88
2017-08-19T03:33:45.875Z,90.73
2017-08-19T03:34:46.511Z,90.44
2017-08-19T03:35:47.141Z,90.92
2017-08-19T03:36:47.783Z,91.21
2017-08-19T03:37:48.415Z,91.02
2017-08-19T03:38:49.049Z,90.73
2017-08-19T03:39:49.833Z,91.12
2017-08-19T03:40:50.474Z,91.79
2017-08-19T03:41:51.105Z,91.50
2017-08-19T03:42:51.747Z,91.79
2017-08-19T03:43:52.380Z,91.60
2017-08-19T03:44:53.024Z,91.60
2017-08-19T03:45:53.658Z,91.50
2017-08-19T03:46:54.292Z,90.44
2017-08-19T03:47:55.136Z,90.78
2017-08-19T03:48:55.770Z,91.06
2017-08-19T03:49:56.401Z,91.36
2017-08-19T03:50:57.037Z,90.58
2017-08-19T03:51:57.669Z,90.92
2017-08-19T03:52:58.313Z,90.64
2017-08-19T03:53:58.947Z,90.83
2017-08-19T03:54:59.586Z,90.34
2017-08-19T03:56:00.417Z,90.92
2017-08-19T03:57:01.064Z,90.83
2017-08-19T03:58:01.698Z,90.78
2017-08-19T03:59:02.334Z,90.78
2017-08-19T04:00:02.968Z,90.88
2017-08-19T04:01:03.659Z,90.88
2017-08-19T04:02:04.343Z,90.54
2017-08-19T04:03:04.982Z,90.88
2017-08-19T04:04:05.815Z,90.54
2017-08-19T04:05:06.458Z,91.16
2017-08-19T04:06:07.098Z,91.74
2017-08-19T04:07:07.731Z,91.83
2017-08-19T04:08:08.371Z,91.55
2017-08-19T04:09:09.009Z,90.78
2017-08-19T04:10:09.640Z,91.06
2017-08-19T04:11:10.281Z,91.16
2017-08-19T04:12:11.125Z,91.26
2017-08-19T04:13:11.748Z,91.06
2017-08-19T04:14:12.384Z,90.88
2017-08-19T04:15:13.024Z,90.10
2017-08-19T04:16:13.662Z,90.68
2017-08-19T04:17:14.298Z,90.30
2017-08-19T04:18:14.931Z,90.68
2017-08-19T04:19:15.573Z,89.72
2017-08-19T04:20:16.204Z,89.96
2017-08-19T04:21:17.038Z,90.25
2017-08-19T04:22:17.678Z,91.31
2017-08-19T04:23:18.309Z,91.12
2017-08-19T04:24:18.945Z,90.68
2017-08-19T04:25:19.584Z,90.06
2017-08-19T04:26:20.216Z,90.73
2017-08-19T04:27:20.855Z,90.34
2017-08-19T04:28:21.495Z,90.34
2017-08-19T04:29:22.328Z,89.86
2017-08-19T04:30:22.971Z,90.16
2017-08-19T04:31:23.601Z,90.16
2017-08-19T04:32:24.239Z,89.67
2017-08-19T04:33:24.871Z,89.96
2017-08-19T04:34:25.514Z,90.34
2017-08-19T04:35:26.148Z,90.44
2017-08-19T04:36:26.785Z,90.16
2017-08-19T04:37:27.567Z,90.73
2017-08-19T04:38:28.205Z,90.54
2017-08-19T04:39:28.844Z,90.73
2017-08-19T04:40:29.480Z,90.64
2017-08-19T04:41:30.111Z,90.92
2017-08-19T04:42:30.748Z,91.69
2017-08-19T04:43:31.382Z,91.41
2017-08-19T04:44:32.016Z,90.83
2017-08-19T04:45:32.852Z,90.54
2017-08-19T04:46:33.486Z,91.69
2017-08-19T04:47:34.128Z,91.69
2017-08-19T04:48:34.764Z,91.69
2017-08-19T04:49:35.402Z,91.50
2017-08-19T04:50:36.036Z,91.69
2017-08-19T04:51:36.669Z,91.69
2017-08-19T04:52:37.312Z,91.45
2017-08-19T04:53:37.945Z,91.69
2017-08-19T04:54:38.776Z,91.74
2017-08-19T04:55:39.409Z,91.60
2017-08-19T04:56:40.044Z,91.50
2017-08-19T04:57:40.684Z,91.21
2017-08-19T04:58:41.323Z,91.26
2017-08-19T04:59:42.013Z,90.83
2017-08-19T05:00:42.644Z,91.50
2017-08-19T05:01:43.283Z,91.69
2017-08-19T05:02:44.076Z,91.50
2017-08-19T05:03:44.705Z,91.41
2017-08-19T05:04:45.340Z,91.31
2017-08-19T05:05:45.974Z,90.73
2017-08-19T05:06:46.610Z,91.79
2017-08-19T05:07:47.243Z,91.41
2017-08-19T05:08:47.879Z,91.41
2017-08-19T05:09:48.513Z,91.41
2017-08-19T05:10:49.349Z,91.50
2017-08-19T05:11:49.985Z,90.97
2017-08-19T05:12:50.624Z,90.83
2017-08-19T05:13:51.262Z,91.83
2017-08-19T05:14:51.898Z,90.44
2017-08-19T05:15:52.530Z,90.92
2017-08-19T05:16:53.170Z,90.73
2017-08-19T05:17:53.802Z,90.83
2017-08-19T05:18:54.742Z,90.34
2017-08-19T05:19:55.379Z,90.73
2017-08-19T05:20:56.015Z,90.83
2017-08-19T05:21:56.652Z,90.83
2017-08-19T05:22:57.283Z,90.73
2017-08-19T05:23:57.921Z,91.69
2017-08-19T05:24:58.564Z,91.21
2017-08-19T05:25:59.189Z,91.31
2017-08-19T05:26:59.981Z,91.21
2017-08-19T05:28:00.613Z,91.50
2017-08-19T05:29:01.248Z,91.60
2017-08-19T05:30:01.883Z,91.83
2017-08-19T05:31:02.518Z,91.55
2017-08-19T05:32:03.151Z,91.74
2017-08-19T05:33:03.793Z,90.92
2017-08-19T05:34:04.431Z,91.69
2017-08-19T05:35:05.059Z,90.97
2017-08-19T05:36:05.945Z,91.50
2017-08-19T05:37:06.578Z,91.41
2017-08-19T05:38:07.214Z,91.16
2017-08-19T05:39:07.850Z,91.69
2017-08-19T05:40:08.541Z,91.02
2017-08-19T05:41:09.172Z,91.50
2017-08-19T05:42:09.805Z,91.74
2017-08-19T05:43:10.443Z,91.06
2017-08-19T05:44:11.332Z,91.79
2017-08-19T05:45:11.978Z,91.79
2017-08-19T05:46:12.604Z,91.55
2017-08-19T05:47:13.243Z,91.12
2017-08-19T05:48:13.869Z,91.21
2017-08-19T05:49:14.504Z,90.83
2017-08-19T05:50:15.142Z,91.06
2017-08-19T05:51:15.786Z,90.92
2017-08-19T05:52:16.565Z,90.83
2017-08-19T05:53:17.210Z,91.69
2017-08-19T05:54:17.843Z,91.79
2017-08-19T05:55:18.473Z,91.06
2017-08-19T05:56:19.109Z,91.26
2017-08-19T05:57:19.743Z,91.45
2017-08-19T05:58:20.378Z,91.36
2017-08-19T05:59:21.013Z,90.73
2017-08-19T06:00:21.906Z,90.64
2017-08-19T06:01:22.532Z,90.97
2017-08-19T06:02:23.167Z,91.21
2017-08-19T06:03:23.807Z,90.83
2017-08-19T06:04:24.446Z,91.36
2017-08-19T06:05:25.078Z,91.26
2017-08-19T06:06:25.718Z,90.88
2017-08-19T06:07:26.349Z,90.78
2017-08-19T06:08:26.984Z,90.88
2017-08-19T06:09:27.818Z,90.83
2017-08-19T06:10:28.457Z,91.31
2017-08-19T06:11:29.095Z,90.97
2017-08-19T06:12:29.726Z,91.26
2017-08-19T06:13:30.361Z,91.36
2017-08-19T06:14:30.995Z,91.21
2017-08-19T06:15:31.633Z,91.16
2017-08-19T06:16:32.277Z,91.31
2017-08-19T06:17:33.111Z,91.36
2017-08-19T06:18:33.742Z,90.92
2017-08-19T06:19:34.428Z,91.64
2017-08-19T06:20:35.064Z,91.60
2017-08-19T06:21:35.705Z,91.55
2017-08-19T06:22:36.340Z,91.69
2017-08-19T06:23:37.024Z,91.50
2017-08-19T06:24:37.657Z,91.60
2017-08-19T06:25:38.491Z,91.45
2017-08-19T06:26:39.125Z,91.55
2017-08-19T06:27:39.759Z,91.41
2017-08-19T06:28:40.400Z,91.64
2017-08-19T06:29:41.036Z,91.83
2017-08-19T06:30:41.678Z,91.41
2017-08-19T06:31:42.313Z,91.69
2017-08-19T06:32:42.945Z,91.64
2017-08-19T06:33:43.785Z,91.45
2017-08-19T06:34:44.426Z,91.69
2017-08-19T06:35:45.065Z,91.55
2017-08-19T06:36:45.701Z,91.41
2017-08-19T06:37:46.340Z,91.50
2017-08-19T06:38:46.969Z,91.60
2017-08-19T06:39:47.603Z,91.60
2017-08-19T06:40:48.253Z,91.69
2017-08-19T06:41:49.184Z,91.83
2017-08-19T06:42:49.812Z,91.99
2017-08-19T06:43:50.448Z,91.79
2017-08-19T06:44:51.084Z,91.79
2017-08-19T06:45:51.728Z,91.99
2017-08-19T06:46:52.364Z,91.79
2017-08-19T06:47:53.001Z,91.79
2017-08-19T06:48:53.633Z,91.99
2017-08-19T06:49:54.273Z,91.69
2017-08-19T06:50:55.110Z,91.89
2017-08-19T06:51:55.743Z,91.50
2017-08-19T06:52:56.376Z,91.60
2017-08-19T06:53:57.011Z,91.50
2017-08-19T06:54:57.650Z,92.18
2017-08-19T06:55:58.294Z,92.18
2017-08-19T06:56:58.934Z,92.18
2017-08-19T06:57:59.570Z,92.08
2017-08-19T06:59:00.406Z,92.27
2017-08-19T07:00:01.042Z,92.18
2017-08-19T07:01:01.674Z,91.50
2017-08-19T07:02:02.308Z,91.79
2017-08-19T07:03:02.943Z,91.89
2017-08-19T07:04:03.577Z,91.79
2017-08-19T07:05:04.219Z,91.50
2017-08-19T07:06:04.849Z,91.41
2017-08-19T07:07:05.633Z,91.89
2017-08-19T07:08:06.275Z,91.69
2017-08-19T07:09:06.918Z,91.99
2017-08-19T07:10:07.557Z,91.69
2017-08-19T07:11:08.193Z,91.99
2017-08-19T07:12:08.831Z,91.99
2017-08-19T07:13:09.467Z,91.99
2017-08-19T07:14:10.104Z,91.60
2017-08-19T07:15:10.937Z,92.37
2017-08-19T07:16:11.575Z,92.18
2017-08-19T07:17:12.209Z,91.89
2017-08-19T07:18:12.843Z,91.89
2017-08-19T07:19:13.477Z,92.08
2017-08-19T07:20:14.118Z,92.27
2017-08-19T07:21:14.756Z,93.04
2017-08-19T07:22:15.387Z,92.76
2017-08-19T07:23:16.028Z,92.66
2017-08-19T07:24:16.859Z,92.37
2017-08-19T07:25:17.494Z,92.47
2017-08-19T07:26:18.126Z,91.99
2017-08-19T07:27:18.764Z,92.37
2017-08-19T07:28:19.397Z,91.89
2017-08-19T07:29:20.032Z,92.27
2017-08-19T07:30:20.668Z,92.37
2017-08-19T07:31:21.309Z,92.08
2017-08-19T07:32:22.138Z,92.18
2017-08-19T07:33:22.781Z,92.27
2017-08-19T07:34:23.418Z,92.08
2017-08-19T07:35:24.052Z,91.50
2017-08-19T07:36:24.693Z,92.18
2017-08-19T07:37:25.322Z,91.89
2017-08-19T07:38:25.962Z,91.89
2017-08-19T07:39:26.593Z,91.99
2017-08-19T07:40:27.381Z,91.60
2017-08-19T07:41:28.018Z,91.79
2017-08-19T07:42:28.653Z,91.89
2017-08-19T07:43:29.285Z,91.60
2017-08-19T07:44:29.921Z,91.21
2017-08-19T07:45:30.568Z,91.31
2017-08-19T07:46:31.192Z,91.50
2017-08-19T07:47:31.834Z,91.50
2017-08-19T07:48:32.715Z,91.79
2017-08-19T07:49:33.348Z,91.50
2017-08-19T07:50:33.985Z,91.41
2017-08-19T07:51:34.618Z,91.69
2017-08-19T07:52:35.252Z,91.69
2017-08-19T07:53:35.893Z,91.50
2017-08-19T07:54:36.528Z,91.50
2017-08-19T07:55:37.160Z,91.79
2017-08-19T07:56:37.993Z,91.99
2017-08-19T07:57:38.633Z,91.93
2017-08-19T07:58:39.265Z,91.41
2017-08-19T07:59:39.904Z,91.60
2017-08-19T08:00:40.533Z,91.50
2017-08-19T08:01:41.172Z,91.69
2017-08-19T08:02:41.809Z,91.89
2017-08-19T08:03:42.446Z,91.26
2017-08-19T08:04:43.079Z,90.73
2017-08-19T08:05:43.914Z,91.02
2017-08-19T08:06:44.552Z,90.73
2017-08-19T08:07:45.186Z,91.74
2017-08-19T08:08:45.819Z,91.55
2017-08-19T08:09:46.455Z,91.31
2017-08-19T08:10:47.093Z,91.36
2017-08-19T08:11:47.730Z,91.02
2017-08-19T08:12:48.359Z,90.83
2017-08-19T08:13:49.299Z,90.83
2017-08-19T08:14:49.939Z,91.31
2017-08-19T08:15:50.570Z,90.64
2017-08-19T08:16:51.206Z,90.88
2017-08-19T08:17:51.839Z,91.21
2017-08-19T08:18:52.476Z,91.02
2017-08-19T08:19:53.115Z,91.21
2017-08-19T08:20:53.745Z,91.45
2017-08-19T08:21:54.540Z,90.78
2017-08-19T08:22:55.176Z,90.78
2017-08-19T08:23:55.806Z,90.88
2017-08-19T08:24:56.449Z,91.06
2017-08-19T08:25:57.083Z,90.68
2017-08-19T08:26:57.722Z,90.78
2017-08-19T08:27:58.408Z,90.58
2017-08-19T08:28:59.043Z,90.88
2017-08-19T08:29:59.884Z,90.68
2017-08-19T08:31:00.516Z,90.97
2017-08-19T08:32:01.150Z,90.88
2017-08-19T08:33:01.797Z,90.58
2017-08-19T08:34:02.425Z,90.78
2017-08-19T08:35:03.067Z,90.48
2017-08-19T08:36:03.752Z,90.68
2017-08-19T08:37:04.392Z,90.68
2017-08-19T08:38:05.023Z,90.78
2017-08-19T08:39:05.811Z,90.68
2017-08-19T08:40:06.455Z,90.68
2017-08-19T08:41:07.086Z,90.68
2017-08-19T08:42:07.723Z,90.48
2017-08-19T08:43:08.354Z,90.58
2017-08-19T08:44:09.001Z,90.48
2017-08-19T08:45:09.636Z,90.68
2017-08-19T08:46:10.271Z,90.97
2017-08-19T08:47:11.252Z,90.68
2017-08-19T08:48:11.897Z,90.68
2017-08-19T08:49:12.533Z,90.97
2017-08-19T08:50:13.172Z,90.68
2017-08-19T08:51:13.800Z,90.88
2017-08-19T08:52:14.435Z,90.88
2017-08-19T08:53:15.072Z,90.97
2017-08-19T08:54:15.707Z,90.88
2017-08-19T08:55:16.541Z,90.88
2017-08-19T08:56:17.178Z,90.68
2017-08-19T08:57:17.812Z,90.78
2017-08-19T08:58:18.460Z,90.88
2017-08-19T08:59:19.089Z,90.97
2017-08-19T09:00:19.723Z,90.88
2017-08-19T09:01:20.358Z,90.78
2017-08-19T09:02:20.991Z,90.48
2017-08-19T09:03:21.830Z,90.39
2017-08-19T09:04:22.464Z,90.39
2017-08-19T09:05:23.097Z,90.39
2017-08-19T09:06:23.736Z,90.10
2017-08-19T09:07:24.378Z,90.10
2017-08-19T09:08:25.070Z,90.10
2017-08-19T09:09:25.697Z,90.48
2017-08-19T09:10:26.331Z,90.39
2017-08-19T09:11:27.117Z,90.00
2017-08-19T09:12:27.754Z,90.39
2017-08-19T09:13:28.392Z,90.39
2017-08-19T09:14:29.024Z,90.20
2017-08-19T09:15:29.659Z,90.00
2017-08-19T09:16:30.294Z,90.10
2017-08-19T09:17:30.929Z,90.20
2017-08-19T09:18:31.569Z,90.20
2017-08-19T09:19:32.257Z,90.10
2017-08-19T09:20:33.090Z,90.20
2017-08-19T09:21:33.726Z,90.30
2017-08-19T09:22:34.362Z,90.20
2017-08-19T09:23:35.003Z,90.10
2017-08-19T09:24:35.637Z,90.20
2017-08-19T09:25:36.269Z,90.20
2017-08-19T09:26:36.913Z,90.30
2017-08-19T09:27:37.548Z,89.81
2017-08-19T09:28:38.429Z,90.48
2017-08-19T09:29:39.071Z,90.39
2017-08-19T09:30:39.712Z,90.48
2017-08-19T09:31:40.348Z,90.39
2017-08-19T09:32:40.981Z,90.48
2017-08-19T09:33:41.615Z,89.81
2017-08-19T09:34:42.250Z,90.05
2017-08-19T09:35:42.885Z,90.05
2017-08-19T09:36:43.926Z,90.05
2017-08-19T09:37:44.559Z,89.86
2017-08-19T09:38:45.195Z,90.15
2017-08-19T09:39:45.829Z,90.05
2017-08-19T09:40:46.464Z,90.24
2017-08-19T09:41:47.102Z,89.67
2017-08-19T09:42:47.734Z,89.47
2017-08-19T09:43:48.374Z,89.57
2017-08-19T09:44:49.218Z,89.57
2017-08-19T09:45:49.852Z,89.76
2017-08-19T09:46:50.489Z,90.05
2017-08-19T09:47:51.123Z,89.47
2017-08-19T09:48:51.760Z,89.86
2017-08-19T09:49:52.397Z,90.05
2017-08-19T09:50:53.034Z,89.37
2017-08-19T09:51:53.665Z,89.37
2017-08-19T09:52:54.306Z,89.37
2017-08-19T09:53:55.098Z,89.37
2017-08-19T09:54:55.729Z,89.09
2017-08-19T09:55:56.370Z,89.28
2017-08-19T09:56:57.001Z,89.37
2017-08-19T09:57:57.638Z,89.57
2017-08-19T09:58:58.271Z,89.37
2017-08-19T09:59:58.906Z,89.47
2017-08-19T10:00:59.546Z,89.67
2017-08-19T10:02:00.435Z,89.37
2017-08-19T10:03:01.072Z,89.47
2017-08-19T10:04:01.711Z,89.09
2017-08-19T10:05:02.342Z,89.09
2017-08-19T10:06:02.988Z,89.18
2017-08-19T10:07:03.616Z,89.18
2017-08-19T10:08:04.257Z,89.37
2017-08-19T10:09:04.889Z,89.47
2017-08-19T10:10:05.981Z,89.09
2017-08-19T10:11:06.623Z,88.89
2017-08-19T10:12:07.261Z,88.89
2017-08-19T10:13:07.901Z,88.89
2017-08-19T10:14:08.537Z,88.89
2017-08-19T10:15:09.170Z,88.70
2017-08-19T10:16:09.805Z,88.99
2017-08-19T10:17:10.446Z,88.89
2017-08-19T10:18:11.282Z,88.70
2017-08-19T10:19:11.916Z,88.89
2017-08-19T10:20:12.555Z,88.89
2017-08-19T10:21:13.241Z,88.51
2017-08-19T10:22:13.929Z,88.51
2017-08-19T10:23:14.561Z,88.51
2017-08-19T10:24:15.201Z,88.36
2017-08-19T10:25:15.890Z,88.51
2017-08-19T10:26:16.673Z,88.51
2017-08-19T10:27:17.309Z,88.22
2017-08-19T10:28:17.945Z,88.41
2017-08-19T10:29:18.579Z,88.31
2017-08-19T10:30:19.219Z,87.93
2017-08-19T10:31:19.851Z,88.22
2017-08-19T10:32:20.492Z,87.93
2017-08-19T10:33:21.135Z,87.59
2017-08-19T10:34:21.772Z,86.91
2017-08-19T10:35:22.602Z,87.16
2017-08-19T10:36:23.245Z,87.30
2017-08-19T10:37:23.888Z,87.59
2017-08-19T10:38:24.516Z,87.20
2017-08-19T10:39:25.155Z,87.68
2017-08-19T10:40:25.795Z,87.68
2017-08-19T10:41:26.426Z,87.10
2017-08-19T10:42:27.068Z,87.68
2017-08-19T10:43:27.907Z,87.30
2017-08-19T10:44:28.541Z,87.01
2017-08-19T10:45:29.176Z,86.91
2017-08-19T10:46:29.819Z,87.10
2017-08-19T10:47:30.456Z,87.10
2017-08-19T10:48:31.100Z,87.01
2017-08-19T10:49:31.731Z,86.82
2017-08-19T10:50:32.367Z,86.82
2017-08-19T10:51:33.206Z,86.82
2017-08-19T10:52:33.840Z,87.10
2017-08-19T10:53:34.477Z,86.91
2017-08-19T10:54:35.110Z,87.01
2017-08-19T10:55:35.754Z,86.82
2017-08-19T10:56:36.392Z,86.52
2017-08-19T10:57:37.030Z,86.91
2017-08-19T10:58:37.669Z,86.82
2017-08-19T10:59:38.453Z,87.10
2017-08-19T11:00:39.092Z,86.82
2017-08-19T11:01:39.722Z,86.62
2017-08-19T11:02:40.366Z,86.52
2017-08-19T11:03:41.001Z,86.72
2017-08-19T11:04:41.589Z,86.62
2017-08-19T11:05:42.226Z,85.94
2017-08-19T11:06:42.864Z,86.72
2017-08-19T11:07:43.499Z,86.72
2017-08-19T11:08:44.336Z,86.72
2017-08-19T11:09:44.978Z,85.85
2017-08-19T11:10:45.623Z,86.72
2017-08-19T11:11:46.253Z,86.72
2017-08-19T11:12:46.886Z,86.82
2017-08-19T11:13:47.521Z,86.62
2017-08-19T11:14:48.169Z,86.82
2017-08-19T11:15:48.805Z,86.62
2017-08-19T11:16:49.643Z,86.82
2017-08-19T11:17:50.285Z,86.52
2017-08-19T11:18:50.920Z,85.94
2017-08-19T11:19:51.555Z,86.52
2017-08-19T11:20:52.192Z,85.94
2017-08-19T11:21:52.834Z,85.94
2017-08-19T11:22:53.478Z,85.85
2017-08-19T11:23:54.115Z,86.14
2017-08-19T11:24:54.957Z,86.04
2017-08-19T11:25:55.593Z,86.04
2017-08-19T11:26:56.230Z,86.14
2017-08-19T11:27:56.871Z,86.24
2017-08-19T11:28:57.507Z,85.94
2017-08-19T11:29:58.143Z,85.94
2017-08-19T11:30:58.780Z,85.94
2017-08-19T11:31:59.415Z,85.75
2017-08-19T11:33:00.303Z,85.85
2017-08-19T11:34:00.941Z,86.04
2017-08-19T11:35:01.582Z,86.08
2017-08-19T11:36:02.213Z,85.75
2017-08-19T11:37:02.858Z,86.08
2017-08-19T11:38:03.547Z,86.28
2017-08-19T11:39:04.188Z,85.50
2017-08-19T11:40:04.822Z,85.80
2017-08-19T11:41:05.814Z,85.99
2017-08-19T11:42:06.452Z,85.50
2017-08-19T11:43:07.086Z,85.89
2017-08-19T11:44:07.721Z,85.60
2017-08-19T11:45:08.365Z,85.70
2017-08-19T11:46:08.998Z,85.80
2017-08-19T11:47:09.640Z,85.80
2017-08-19T11:48:10.280Z,85.89
2017-08-19T11:49:10.914Z,85.50
2017-08-19T11:50:11.801Z,85.89
2017-08-19T11:51:12.399Z,85.22
2017-08-19T11:52:13.036Z,85.41
2017-08-19T11:53:13.675Z,85.70
2017-08-19T11:54:14.309Z,85.99
2017-08-19T11:55:14.946Z,85.80
2017-08-19T11:56:15.587Z,85.22
2017-08-19T11:57:16.228Z,85.41
2017-08-19T11:58:17.010Z,85.31
2017-08-19T11:59:17.648Z,85.22
2017-08-19T12:00:18.291Z,85.31
2017-08-19T12:01:18.930Z,85.31
2017-08-19T12:02:19.569Z,85.12
2017-08-19T12:03:20.202Z,84.83
2017-08-19T12:04:20.845Z,84.83
2017-08-19T12:05:21.482Z,85.12
2017-08-19T12:06:22.416Z,85.60
2017-08-19T12:07:23.053Z,85.50
2017-08-19T12:08:23.692Z,84.93
2017-08-19T12:09:24.329Z,84.83
2017-08-19T12:10:24.963Z,84.93
2017-08-19T12:11:25.600Z,85.12
2017-08-19T12:12:26.240Z,85.12
2017-08-19T12:13:26.876Z,84.93
2017-08-19T12:14:27.812Z,85.12
2017-08-19T12:15:28.454Z,85.12
2017-08-19T12:16:29.095Z,85.02
2017-08-19T12:17:29.735Z,85.22
2017-08-19T12:18:30.368Z,85.02
2017-08-19T12:19:31.016Z,84.83
2017-08-19T12:20:31.656Z,85.02
2017-08-19T12:21:32.295Z,84.74
2017-08-19T12:22:32.934Z,84.83
2017-08-19T12:23:33.768Z,84.54
2017-08-19T12:24:34.405Z,84.74
2017-08-19T12:25:35.045Z,84.25
2017-08-19T12:26:35.680Z,84.25
2017-08-19T12:27:36.317Z,84.64
2017-08-19T12:28:36.959Z,84.54
2017-08-19T12:29:37.595Z,84.64
2017-08-19T12:30:38.238Z,84.74
2017-08-19T12:31:39.127Z,84.44
2017-08-19T12:32:39.763Z,84.44
2017-08-19T12:33:40.400Z,84.44
2017-08-19T12:34:41.038Z,84.74
2017-08-19T12:35:41.674Z,84.35
2017-08-19T12:36:42.310Z,84.35
2017-08-19T12:37:42.949Z,84.25
2017-08-19T12:38:43.586Z,84.06
2017-08-19T12:39:44.428Z,84.06
2017-08-19T12:40:45.069Z,84.06
2017-08-19T12:41:45.707Z,83.77
2017-08-19T12:42:46.338Z,84.16
2017-08-19T12:43:46.975Z,84.06
2017-08-19T12:44:47.617Z,84.06
2017-08-19T12:45:48.256Z,84.06
2017-08-19T12:46:48.893Z,83.87
2017-08-19T12:47:49.733Z,83.96
2017-08-19T12:48:50.366Z,84.16
2017-08-19T12:49:51.006Z,84.06
2017-08-19T12:50:51.640Z,83.77
2017-08-19T12:51:52.279Z,83.77
2017-08-19T12:52:52.918Z,84.35
2017-08-19T12:53:53.612Z,84.25
2017-08-19T12:54:54.246Z,84.35
2017-08-19T12:55:55.087Z,84.16
2017-08-19T12:56:55.733Z,84.25
2017-08-19T12:57:56.361Z,84.06
2017-08-19T12:58:57.008Z,84.25
2017-08-19T12:59:57.649Z,84.25
2017-08-19T13:00:58.281Z,84.25